Karmel — 9HA2896 — position and weather

sailwx.info

Track history (hours):
 
Tides and Currents Weather Stations Pressure Air Temp Water Temp Dewpoint Dewpoint Depression Visibility Wind Speed Wind Dir Waves Ship Positions

Karmel

Last reported at 2016-Aug-26 00:34 UTC. Time now 2016-Aug-26 04:59 UTC.
Position N 59°34' E 021°32'.

Length 90 m; draft 4.2 m.

Type: Ship. MMSI: 256632000.

Date/timePositionNaut miles runAvg speedWind from/ knotsBaromVisibWave heightAir tempDewpointWater temp
2016-Aug-26 00:34N 59°34' E 021°32'2811.3
2016-Aug-25 22:05N 59°36' E 022°27'611.1
2016-Aug-25 21:32N 59°37' E 022°39'1111.1
2016-Aug-25 20:31N 59°38' E 023°01'35 2.2
2016-Aug-25 04:13N 59°21' E 024°03'0 0.0
2016-Aug-25 03:27N 59°21' E 024°03'  
2016-Aug-22 19:30N 55°31' E 019°29'9 9.7
2016-Aug-22 18:33N 55°22' E 019°24'10 9.7
2016-Aug-22 17:33N 55°13' E 019°18'10 9.6
2016-Aug-22 16:33N 55°04' E 019°12'10 9.6
2016-Aug-22 15:33N 54°55' E 019°07'10 9.6
2016-Aug-22 14:33N 54°46' E 019°02'1010.1
2016-Aug-22 13:34N 54°37' E 018°55'9 9.0
2016-Aug-22 12:33N 54°32' E 018°42'5 5.1
2016-Aug-22 11:31N 54°32' E 018°33'0 0.0
2016-Aug-22 10:31N 54°32' E 018°33'0 0.0
2016-Aug-22 09:31N 54°32' E 018°33'0 0.0
2016-Aug-22 08:31N 54°32' E 018°33'0 0.0
2016-Aug-22 07:31N 54°32' E 018°33'0 0.0
2016-Aug-22 06:31N 54°32' E 018°33'0 0.0
2016-Aug-22 05:31N 54°32' E 018°33'0 0.0
2016-Aug-22 04:31N 54°32' E 018°33'0 0.0
2016-Aug-22 03:31N 54°32' E 018°33'0 0.0
2016-Aug-22 02:31N 54°32' E 018°33'0 0.0
2016-Aug-22 01:31N 54°32' E 018°33'0 0.0
2016-Aug-22 00:31N 54°32' E 018°33'0 0.0
2016-Aug-21 23:31N 54°32' E 018°33'0 0.0
2016-Aug-21 22:31N 54°32' E 018°33'0 0.0
2016-Aug-21 21:31N 54°32' E 018°33'0 0.0
2016-Aug-21 20:28N 54°32' E 018°33'0 0.0
2016-Aug-21 19:31N 54°32' E 018°33'0 0.0
2016-Aug-21 18:31N 54°32' E 018°33'0 0.0
2016-Aug-21 17:31N 54°32' E 018°33'0 0.0
2016-Aug-21 16:31N 54°32' E 018°33'0 0.0
2016-Aug-21 15:31N 54°32' E 018°33'0 0.0
2016-Aug-21 14:31N 54°32' E 018°33'0 0.0
2016-Aug-21 13:31N 54°32' E 018°33'0 0.0
2016-Aug-21 12:31N 54°32' E 018°33'0 0.0
2016-Aug-21 11:31N 54°32' E 018°33'0 0.0
2016-Aug-21 10:31N 54°32' E 018°33'0 0.0
2016-Aug-21 09:28N 54°32' E 018°33'0 0.0
2016-Aug-21 08:31N 54°32' E 018°33'0 0.0
2016-Aug-21 07:28N 54°32' E 018°33'0 0.0
2016-Aug-21 06:31N 54°32' E 018°33'0 0.0
2016-Aug-21 05:31N 54°32' E 018°33'0 0.0
2016-Aug-21 04:32N 54°32' E 018°33'0 0.0
2016-Aug-21 03:32N 54°32' E 018°33'0 0.0
2016-Aug-21 02:32N 54°32' E 018°33'0 0.0
2016-Aug-21 01:32N 54°32' E 018°33'0 0.0
2016-Aug-21 00:32N 54°32' E 018°33'0 0.0
2016-Aug-20 23:32N 54°32' E 018°33'0 0.0
2016-Aug-20 22:32N 54°32' E 018°33'0 0.0
2016-Aug-20 21:32N 54°32' E 018°33'0 0.0
2016-Aug-20 20:32N 54°32' E 018°33'0 0.0
2016-Aug-20 19:32N 54°32' E 018°33'0 0.0
2016-Aug-20 18:29N 54°32' E 018°33'0 0.0
2016-Aug-20 17:32N 54°32' E 018°33'0 0.0
2016-Aug-20 16:32N 54°32' E 018°33'0 0.0
2016-Aug-20 15:32N 54°32' E 018°33'0 0.0
2016-Aug-20 14:32N 54°32' E 018°33'0 0.0
2016-Aug-20 13:32N 54°32' E 018°33'0 0.0
2016-Aug-20 12:32N 54°32' E 018°33'0 0.0
2016-Aug-20 11:32N 54°32' E 018°33'0 0.0
2016-Aug-20 10:32N 54°32' E 018°33'0 0.0
2016-Aug-20 09:32N 54°32' E 018°33'0 0.0
2016-Aug-20 08:32N 54°32' E 018°33'0 0.0
2016-Aug-20 07:32N 54°32' E 018°33'0 0.0
2016-Aug-20 06:32N 54°32' E 018°33'0 0.0
2016-Aug-20 05:33N 54°32' E 018°33'0 0.0
2016-Aug-20 04:29N 54°32' E 018°33'0 0.0
2016-Aug-20 03:32N 54°32' E 018°33'0 0.0
2016-Aug-20 02:32N 54°32' E 018°33'0 0.0
2016-Aug-20 01:32N 54°32' E 018°33'0 0.0
2016-Aug-20 00:32N 54°32' E 018°33'0 0.0
2016-Aug-19 23:32N 54°32' E 018°33'0 0.0
2016-Aug-19 22:32N 54°32' E 018°33'0 0.0
2016-Aug-19 21:32N 54°32' E 018°33'0 0.0
2016-Aug-19 20:32N 54°32' E 018°33'0 0.0
2016-Aug-19 19:32N 54°32' E 018°33'0 0.0
2016-Aug-19 18:32N 54°32' E 018°33'0 0.0
2016-Aug-19 17:33N 54°32' E 018°33'4 4.0
2016-Aug-19 16:33N 54°32' E 018°40'9 9.4
2016-Aug-19 15:33N 54°37' E 018°54'9 9.3
2016-Aug-19 14:33N 54°41' E 019°08'1010.4
2016-Aug-19 13:33N 54°42' E 019°26'1010.3
2016-Aug-19 12:33N 54°42' E 019°44'6 0.1
2016-Aug-17 14:08N 54°39' E 019°52'610.8
2016-Aug-17 13:33N 54°42' E 019°43'25110.9
2016-Aug-16 14:33N 58°37' E 017°04'1111.1
2016-Aug-16 13:33N 58°37' E 016°43'1110.5
2016-Aug-16 12:33N 58°39' E 016°23'4 4.3
2016-Aug-16 11:32N 58°37' E 016°15'0 0.0
2016-Aug-16 10:32N 58°37' E 016°15'0 0.0
2016-Aug-16 09:32N 58°37' E 016°15'0 0.0
2016-Aug-16 08:32N 58°37' E 016°15'0 0.0
2016-Aug-16 07:32N 58°37' E 016°15'0 0.0
2016-Aug-16 06:32N 58°37' E 016°15'0 0.0
2016-Aug-16 04:32N 58°37' E 016°15'0 0.0
2016-Aug-16 03:32N 58°37' E 016°15'0 0.0
2016-Aug-16 02:32N 58°37' E 016°15'0 0.0
2016-Aug-16 01:32N 58°37' E 016°15'  
Track history (hours):
 
Tides and Currents Weather Stations Pressure Air Temp Water Temp Dewpoint Dewpoint Depression Visibility Wind Speed Wind Dir Waves Ship Positions

Karmel

Last reported at 2016-Aug-26 00:34 UTC. Time now 2016-Aug-26 04:59 UTC.
Position N 59°34' E 021°32'.

Length 90 m; draft 4.2 m.

Type: Ship. MMSI: 256632000.

Date/timePositionNaut miles runAvg speedWind from/ knotsBaromVisibWave heightAir tempDewpointWater temp
2016-Aug-26 00:34N 59°34' E 021°32'2811.3
2016-Aug-25 22:05N 59°36' E 022°27'611.1
2016-Aug-25 21:32N 59°37' E 022°39'1111.1
2016-Aug-25 20:31N 59°38' E 023°01'35 2.2
2016-Aug-25 04:13N 59°21' E 024°03'0 0.0
2016-Aug-25 03:27N 59°21' E 024°03'  
2016-Aug-22 19:30N 55°31' E 019°29'9 9.7
2016-Aug-22 18:33N 55°22' E 019°24'10 9.7
2016-Aug-22 17:33N 55°13' E 019°18'10 9.6
2016-Aug-22 16:33N 55°04' E 019°12'10 9.6
2016-Aug-22 15:33N 54°55' E 019°07'10 9.6
2016-Aug-22 14:33N 54°46' E 019°02'1010.1
2016-Aug-22 13:34N 54°37' E 018°55'9 9.0
2016-Aug-22 12:33N 54°32' E 018°42'5 5.1
2016-Aug-22 11:31N 54°32' E 018°33'0 0.0
2016-Aug-22 10:31N 54°32' E 018°33'0 0.0
2016-Aug-22 09:31N 54°32' E 018°33'0 0.0
2016-Aug-22 08:31N 54°32' E 018°33'0 0.0
2016-Aug-22 07:31N 54°32' E 018°33'0 0.0
2016-Aug-22 06:31N 54°32' E 018°33'0 0.0
2016-Aug-22 05:31N 54°32' E 018°33'0 0.0
2016-Aug-22 04:31N 54°32' E 018°33'0 0.0
2016-Aug-22 03:31N 54°32' E 018°33'0 0.0
2016-Aug-22 02:31N 54°32' E 018°33'0 0.0
2016-Aug-22 01:31N 54°32' E 018°33'0 0.0
2016-Aug-22 00:31N 54°32' E 018°33'0 0.0
2016-Aug-21 23:31N 54°32' E 018°33'0 0.0
2016-Aug-21 22:31N 54°32' E 018°33'0 0.0
2016-Aug-21 21:31N 54°32' E 018°33'0 0.0
2016-Aug-21 20:28N 54°32' E 018°33'0 0.0
2016-Aug-21 19:31N 54°32' E 018°33'0 0.0
2016-Aug-21 18:31N 54°32' E 018°33'0 0.0
2016-Aug-21 17:31N 54°32' E 018°33'0 0.0
2016-Aug-21 16:31N 54°32' E 018°33'0 0.0
2016-Aug-21 15:31N 54°32' E 018°33'0 0.0
2016-Aug-21 14:31N 54°32' E 018°33'0 0.0
2016-Aug-21 13:31N 54°32' E 018°33'0 0.0
2016-Aug-21 12:31N 54°32' E 018°33'0 0.0
2016-Aug-21 11:31N 54°32' E 018°33'0 0.0
2016-Aug-21 10:31N 54°32' E 018°33'0 0.0
2016-Aug-21 09:28N 54°32' E 018°33'0 0.0
2016-Aug-21 08:31N 54°32' E 018°33'0 0.0
2016-Aug-21 07:28N 54°32' E 018°33'0 0.0
2016-Aug-21 06:31N 54°32' E 018°33'0 0.0
2016-Aug-21 05:31N 54°32' E 018°33'0 0.0
2016-Aug-21 04:32N 54°32' E 018°33'0 0.0
2016-Aug-21 03:32N 54°32' E 018°33'0 0.0
2016-Aug-21 02:32N 54°32' E 018°33'0 0.0
2016-Aug-21 01:32N 54°32' E 018°33'0 0.0
2016-Aug-21 00:32N 54°32' E 018°33'0 0.0
2016-Aug-20 23:32N 54°32' E 018°33'0 0.0
2016-Aug-20 22:32N 54°32' E 018°33'0 0.0
2016-Aug-20 21:32N 54°32' E 018°33'0 0.0
2016-Aug-20 20:32N 54°32' E 018°33'0 0.0
2016-Aug-20 19:32N 54°32' E 018°33'0 0.0
2016-Aug-20 18:29N 54°32' E 018°33'0 0.0
2016-Aug-20 17:32N 54°32' E 018°33'0 0.0
2016-Aug-20 16:32N 54°32' E 018°33'0 0.0
2016-Aug-20 15:32N 54°32' E 018°33'0 0.0
2016-Aug-20 14:32N 54°32' E 018°33'0 0.0
2016-Aug-20 13:32N 54°32' E 018°33'0 0.0
2016-Aug-20 12:32N 54°32' E 018°33'0 0.0
2016-Aug-20 11:32N 54°32' E 018°33'0 0.0
2016-Aug-20 10:32N 54°32' E 018°33'0 0.0
2016-Aug-20 09:32N 54°32' E 018°33'0 0.0
2016-Aug-20 08:32N 54°32' E 018°33'0 0.0
2016-Aug-20 07:32N 54°32' E 018°33'0 0.0
2016-Aug-20 06:32N 54°32' E 018°33'0 0.0
2016-Aug-20 05:33N 54°32' E 018°33'0 0.0
2016-Aug-20 04:29N 54°32' E 018°33'0 0.0
2016-Aug-20 03:32N 54°32' E 018°33'0 0.0
2016-Aug-20 02:32N 54°32' E 018°33'0 0.0
2016-Aug-20 01:32N 54°32' E 018°33'0 0.0
2016-Aug-20 00:32N 54°32' E 018°33'0 0.0
2016-Aug-19 23:32N 54°32' E 018°33'0 0.0
2016-Aug-19 22:32N 54°32' E 018°33'0 0.0
2016-Aug-19 21:32N 54°32' E 018°33'0 0.0
2016-Aug-19 20:32N 54°32' E 018°33'0 0.0
2016-Aug-19 19:32N 54°32' E 018°33'0 0.0
2016-Aug-19 18:32N 54°32' E 018°33'0 0.0
2016-Aug-19 17:33N 54°32' E 018°33'4 4.0
2016-Aug-19 16:33N 54°32' E 018°40'9 9.4
2016-Aug-19 15:33N 54°37' E 018°54'9 9.3
2016-Aug-19 14:33N 54°41' E 019°08'1010.4
2016-Aug-19 13:33N 54°42' E 019°26'1010.3
2016-Aug-19 12:33N 54°42' E 019°44'6 0.1
2016-Aug-17 14:08N 54°39' E 019°52'610.8
2016-Aug-17 13:33N 54°42' E 019°43'25110.9
2016-Aug-16 14:33N 58°37' E 017°04'1111.1
2016-Aug-16 13:33N 58°37' E 016°43'1110.5
2016-Aug-16 12:33N 58°39' E 016°23'4 4.3
2016-Aug-16 11:32N 58°37' E 016°15'0 0.0
2016-Aug-16 10:32N 58°37' E 016°15'0 0.0
2016-Aug-16 09:32N 58°37' E 016°15'0 0.0
2016-Aug-16 08:32N 58°37' E 016°15'0 0.0
2016-Aug-16 07:32N 58°37' E 016°15'0 0.0
2016-Aug-16 06:32N 58°37' E 016°15'0 0.0
2016-Aug-16 04:32N 58°37' E 016°15'0 0.0
2016-Aug-16 03:32N 58°37' E 016°15'0 0.0
2016-Aug-16 02:32N 58°37' E 016°15'0 0.0
2016-Aug-16 01:32N 58°37' E 016°15'  

Dump ship's entire track history